createdAt,value
2023-04-27T00:00:37.397Z,95584.06
2023-04-27T00:03:06.565Z,95581.00
2023-04-27T00:05:39.356Z,95580.31
2023-04-27T00:08:07.707Z,95570.47
2023-04-27T00:10:35.665Z,95575.91
2023-04-27T00:13:03.530Z,95560.28
2023-04-27T00:15:31.266Z,95560.94
2023-04-27T00:17:59.220Z,95570.19
2023-04-27T00:20:26.877Z,95565.19
2023-04-27T00:22:56.637Z,95569.19
2023-04-27T00:25:24.574Z,95566.75
2023-04-27T00:27:52.218Z,95561.97
2023-04-27T00:30:19.914Z,95563.84
2023-04-27T00:32:47.948Z,95565.22
2023-04-27T00:35:17.586Z,95561.13
2023-04-27T00:37:45.372Z,95557.81
2023-04-27T00:40:14.773Z,95554.56
2023-04-27T00:42:42.626Z,95569.50
2023-04-27T00:45:11.746Z,95560.50
2023-04-27T00:47:39.462Z,95567.50
2023-04-27T00:50:08.623Z,95559.63
2023-04-27T00:52:37.275Z,95566.97
2023-04-27T00:55:05.900Z,95562.88
2023-04-27T00:57:35.463Z,95568.50
2023-04-27T01:00:06.880Z,95557.03
2023-04-27T01:02:36.945Z,95561.00
2023-04-27T01:05:05.015Z,95563.31
2023-04-27T01:07:32.884Z,95558.09
2023-04-27T01:10:00.501Z,95552.53
2023-04-27T01:12:28.630Z,95566.16
2023-04-27T01:14:57.592Z,95560.63
2023-04-27T01:17:25.671Z,95566.00
2023-04-27T01:19:55.324Z,95562.56
2023-04-27T01:22:23.316Z,95563.38
2023-04-27T01:24:52.334Z,95566.19
2023-04-27T01:27:19.999Z,95568.00
2023-04-27T01:29:48.124Z,95555.69
2023-04-27T01:32:15.748Z,95560.28
2023-04-27T01:34:43.752Z,95556.19
2023-04-27T01:37:12.031Z,95560.78
2023-04-27T01:39:40.047Z,95556.06
2023-04-27T01:42:10.406Z,95563.28
2023-04-27T01:44:40.820Z,95554.91
2023-04-27T01:47:10.196Z,95568.22
2023-04-27T01:49:38.010Z,95569.38
2023-04-27T01:52:05.678Z,95570.38
2023-04-27T01:54:34.773Z,95568.88
2023-04-27T01:57:02.644Z,95570.69
2023-04-27T01:59:31.812Z,95570.19
2023-04-27T02:01:59.545Z,95575.28
2023-04-27T02:04:27.585Z,95573.03
2023-04-27T02:06:55.307Z,95566.47
2023-04-27T02:09:23.164Z,95566.47
2023-04-27T02:11:50.884Z,95563.03
2023-04-27T02:14:18.660Z,95564.50
2023-04-27T02:16:49.348Z,95567.47
2023-04-27T02:19:17.328Z,95573.88
2023-04-27T02:21:44.975Z,95575.16
2023-04-27T02:24:12.758Z,95580.91
2023-04-27T02:26:40.694Z,95579.09
2023-04-27T02:29:08.947Z,95578.13
2023-04-27T02:31:37.281Z,95580.56
2023-04-27T02:34:07.016Z,95578.94
2023-04-27T02:36:34.710Z,95579.59
2023-04-27T02:39:02.707Z,95579.41
2023-04-27T02:41:32.731Z,95585.50
2023-04-27T02:44:00.510Z,95588.13
2023-04-27T02:46:28.185Z,95576.00
2023-04-27T02:48:56.517Z,95576.63
2023-04-27T02:51:26.065Z,95579.72
2023-04-27T02:53:54.466Z,95593.66
2023-04-27T02:56:22.089Z,95589.53
2023-04-27T02:58:49.877Z,95590.69
2023-04-27T03:01:18.184Z,95589.69
2023-04-27T03:03:47.438Z,95595.06
2023-04-27T03:06:15.865Z,95590.59
2023-04-27T03:08:45.948Z,95595.53
2023-04-27T03:11:13.768Z,95593.19
2023-04-27T03:13:42.641Z,95591.84
2023-04-27T03:16:11.668Z,95589.88
2023-04-27T03:18:40.631Z,95591.53
2023-04-27T03:21:09.317Z,95595.66
2023-04-27T03:23:37.447Z,95594.50
2023-04-27T03:26:10.917Z,95587.31
2023-04-27T03:28:38.705Z,95591.56
2023-04-27T03:31:07.437Z,95586.84
2023-04-27T03:33:36.260Z,95597.97
2023-04-27T03:36:05.523Z,95589.47
2023-04-27T03:38:35.916Z,95593.34
2023-04-27T03:41:04.438Z,95601.63
2023-04-27T03:43:33.422Z,95609.38
2023-04-27T03:46:01.392Z,95613.25
2023-04-27T03:48:29.257Z,95620.72
2023-04-27T03:50:57.249Z,95614.34
2023-04-27T03:53:24.928Z,95613.81
2023-04-27T03:55:53.108Z,95616.41
2023-04-27T03:58:20.765Z,95607.91
2023-04-27T04:01:10.088Z,95629.66
2023-04-27T04:03:38.441Z,95622.47
2023-04-27T04:06:08.846Z,95635.72
2023-04-27T04:08:36.542Z,95638.66
2023-04-27T04:11:04.359Z,95640.94
2023-04-27T04:13:32.154Z,95644.72
2023-04-27T04:16:04.544Z,95644.31
2023-04-27T04:18:33.717Z,95645.53
2023-04-27T04:21:02.152Z,95644.94
2023-04-27T04:23:29.942Z,95644.44
2023-04-27T04:25:58.596Z,95644.00
2023-04-27T04:28:30.675Z,95644.66
2023-04-27T04:30:59.071Z,95648.44
2023-04-27T04:33:27.203Z,95655.53
2023-04-27T04:35:56.192Z,95647.22
2023-04-27T04:38:24.435Z,95645.50
2023-04-27T04:40:52.933Z,95651.84
2023-04-27T04:43:21.414Z,95645.34
2023-04-27T04:45:49.298Z,95651.44
2023-04-27T04:48:17.634Z,95653.28
2023-04-27T04:50:46.575Z,95656.13
2023-04-27T04:53:15.858Z,95657.81
2023-04-27T04:55:43.537Z,95667.34
2023-04-27T04:58:11.316Z,95655.56
2023-04-27T05:00:39.068Z,95666.38
2023-04-27T05:03:07.600Z,95661.50
2023-04-27T05:05:35.621Z,95664.16
2023-04-27T05:08:03.443Z,95667.09
2023-04-27T05:10:32.690Z,95654.66
2023-04-27T05:13:00.313Z,95659.28
2023-04-27T05:15:27.955Z,95665.53
2023-04-27T05:17:55.709Z,95653.41
2023-04-27T05:20:23.334Z,95668.81
2023-04-27T05:22:50.960Z,95663.59
2023-04-27T05:25:18.858Z,95672.13
2023-04-27T05:27:47.783Z,95661.63
2023-04-27T05:30:15.644Z,95667.19
2023-04-27T05:32:43.305Z,95666.53
2023-04-27T05:35:11.347Z,95665.56
2023-04-27T05:37:38.942Z,95660.94
2023-04-27T05:40:09.337Z,95660.94
2023-04-27T05:42:37.030Z,95663.06
2023-04-27T05:45:07.574Z,95671.72
2023-04-27T05:47:35.239Z,95665.00
2023-04-27T05:50:03.686Z,95673.34
2023-04-27T05:52:31.681Z,95672.69
2023-04-27T05:54:59.838Z,95670.69
2023-04-27T05:57:27.798Z,95678.56
2023-04-27T05:59:55.590Z,95677.94
2023-04-27T06:02:24.809Z,95676.56
2023-04-27T06:04:52.563Z,95678.81
2023-04-27T06:07:20.541Z,95674.47
2023-04-27T06:09:48.132Z,95677.72
2023-04-27T06:12:15.893Z,95674.69
2023-04-27T06:14:43.484Z,95674.19
2023-04-27T06:17:11.313Z,95679.34
2023-04-27T06:19:40.578Z,95682.09
2023-04-27T06:22:08.536Z,95678.88
2023-04-27T06:24:36.736Z,95677.66
2023-04-27T06:27:04.693Z,95679.50
2023-04-27T06:29:32.337Z,95687.09
2023-04-27T06:32:00.230Z,95690.41
2023-04-27T06:34:28.007Z,95681.53
2023-04-27T06:36:57.267Z,95687.84
2023-04-27T06:39:24.864Z,95691.69
2023-04-27T06:41:52.463Z,95681.66
2023-04-27T06:44:20.124Z,95680.84
2023-04-27T06:46:47.736Z,95686.47
2023-04-27T06:49:15.648Z,95695.75
2023-04-27T06:51:43.691Z,95690.38
2023-04-27T06:54:12.624Z,95683.97
2023-04-27T06:56:40.704Z,95687.94
2023-04-27T06:59:09.037Z,95689.09
2023-04-27T07:01:37.259Z,95691.69
2023-04-27T07:04:05.252Z,95697.34
2023-04-27T07:06:33.554Z,95707.34
2023-04-27T07:09:01.242Z,95707.81
2023-04-27T07:11:30.368Z,95703.84
2023-04-27T07:13:58.017Z,95696.53
2023-04-27T07:16:25.978Z,95696.22
2023-04-27T07:18:53.596Z,95705.66
2023-04-27T07:21:21.861Z,95697.09
2023-04-27T07:23:49.491Z,95701.19
2023-04-27T07:26:18.030Z,95697.25
2023-04-27T07:28:47.329Z,95699.41
2023-04-27T07:31:15.323Z,95695.34
2023-04-27T07:33:43.286Z,95696.00
2023-04-27T07:36:11.296Z,95694.06
2023-04-27T07:38:38.894Z,95701.69
2023-04-27T07:41:07.398Z,95700.88
2023-04-27T07:43:35.154Z,95702.13
2023-04-27T07:46:04.504Z,95692.84
2023-04-27T07:48:32.647Z,95690.94
2023-04-27T07:51:00.254Z,95683.88
2023-04-27T07:53:28.015Z,95692.66
2023-04-27T07:55:55.617Z,95691.06
2023-04-27T07:58:23.399Z,95703.72
2023-04-27T08:00:51.006Z,95700.25
2023-04-27T08:03:20.377Z,95697.16
2023-04-27T08:05:48.346Z,95704.91
2023-04-27T08:08:16.936Z,95699.59
2023-04-27T08:10:44.630Z,95703.59
2023-04-27T08:13:12.764Z,95698.28
2023-04-27T08:15:40.512Z,95704.47
2023-04-27T08:18:08.271Z,95704.31
2023-04-27T08:20:37.213Z,95706.03
2023-04-27T08:23:04.966Z,95700.78
2023-04-27T08:25:33.591Z,95703.88
2023-04-27T08:28:01.419Z,95714.72
2023-04-27T08:30:29.074Z,95710.53
2023-04-27T08:32:56.791Z,95710.22
2023-04-27T08:35:24.400Z,95697.41
2023-04-27T08:37:54.372Z,95698.91
2023-04-27T08:40:24.490Z,95700.16
2023-04-27T08:42:56.643Z,95695.16
2023-04-27T08:45:25.019Z,95685.16
2023-04-27T08:47:53.506Z,95688.28
2023-04-27T08:50:21.340Z,95690.22
2023-04-27T08:52:49.723Z,95685.41
2023-04-27T08:55:18.851Z,95686.38
2023-04-27T08:57:56.119Z,95687.09
2023-04-27T09:00:25.425Z,95687.06
2023-04-27T09:02:53.658Z,95688.06
2023-04-27T09:05:24.420Z,95691.59
2023-04-27T09:07:59.613Z,95688.72
2023-04-27T09:10:29.913Z,95685.50
2023-04-27T09:12:59.391Z,95680.06
2023-04-27T09:15:27.367Z,95690.19
2023-04-27T09:17:56.801Z,95680.31
2023-04-27T09:20:27.234Z,95677.75
2023-04-27T09:22:58.491Z,95672.69
2023-04-27T09:25:29.521Z,95678.34
2023-04-27T09:27:58.331Z,95664.63
2023-04-27T09:30:26.618Z,95666.34
2023-04-27T09:32:56.991Z,95663.19
2023-04-27T09:35:27.290Z,95660.53
2023-04-27T09:37:55.860Z,95669.81
2023-04-27T09:40:26.620Z,95674.81
2023-04-27T09:42:57.421Z,95658.56
2023-04-27T09:45:25.960Z,95660.81
2023-04-27T09:47:54.039Z,95648.88
2023-04-27T09:50:22.072Z,95652.50
2023-04-27T09:52:49.934Z,95658.69
2023-04-27T09:55:20.987Z,95654.28
2023-04-27T09:57:56.097Z,95652.22
2023-04-27T10:00:48.418Z,95644.59
2023-04-27T10:03:23.741Z,95647.47
2023-04-27T10:06:32.879Z,95648.31
2023-04-27T10:09:05.065Z,95644.41
2023-04-27T10:11:40.738Z,95651.63
2023-04-27T10:14:11.234Z,95642.09
2023-04-27T10:16:47.292Z,95650.22
2023-04-27T10:19:15.719Z,95639.84
2023-04-27T10:21:58.984Z,95643.19
2023-04-27T10:24:35.797Z,95636.16
2023-04-27T10:27:06.282Z,95643.63
2023-04-27T10:29:38.883Z,95631.97
2023-04-27T10:32:14.023Z,95640.91
2023-04-27T10:34:43.870Z,95640.69
2023-04-27T10:37:14.088Z,95641.69
2023-04-27T10:39:47.639Z,95639.63
2023-04-27T10:42:27.112Z,95645.47
2023-04-27T10:44:57.545Z,95641.41
2023-04-27T10:47:38.061Z,95636.16
2023-04-27T10:50:07.012Z,95640.25
2023-04-27T10:52:34.958Z,95639.41
2023-04-27T10:55:13.806Z,95629.00
2023-04-27T10:57:47.703Z,95625.69
2023-04-27T11:00:17.565Z,95628.78
2023-04-27T11:02:46.628Z,95625.16
2023-04-27T11:05:19.418Z,95631.97
2023-04-27T11:07:48.043Z,95629.25
2023-04-27T11:10:20.307Z,95630.13
2023-04-27T11:12:48.197Z,95628.41
2023-04-27T11:15:15.979Z,95636.03
2023-04-27T11:17:44.343Z,95638.91
2023-04-27T11:20:14.359Z,95630.56
2023-04-27T11:22:46.813Z,95640.59
2023-04-27T11:25:15.156Z,95640.56
2023-04-27T11:27:42.836Z,95644.91
2023-04-27T11:30:21.163Z,95640.91
2023-04-27T11:32:48.893Z,95632.53
2023-04-27T11:35:19.221Z,95633.69
2023-04-27T11:37:59.391Z,95616.81
2023-04-27T11:40:28.932Z,95633.97
2023-04-27T11:43:03.133Z,95632.81
2023-04-27T11:45:31.565Z,95633.41
2023-04-27T11:47:59.870Z,95649.19
2023-04-27T11:50:28.904Z,95643.69
2023-04-27T11:53:01.410Z,95632.44
2023-04-27T11:55:29.036Z,95638.38
2023-04-27T11:57:58.942Z,95629.41
2023-04-27T12:00:26.898Z,95631.94
2023-04-27T12:02:54.574Z,95626.59
2023-04-27T12:05:23.326Z,95630.97
2023-04-27T12:07:53.211Z,95629.19
2023-04-27T12:10:21.087Z,95628.00
2023-04-27T12:12:48.858Z,95633.56
2023-04-27T12:15:16.605Z,95633.44
2023-04-27T12:17:44.284Z,95634.16
2023-04-27T12:20:14.641Z,95629.47
2023-04-27T12:22:42.370Z,95629.66
2023-04-27T12:25:11.475Z,95625.75
2023-04-27T12:27:39.066Z,95628.84
2023-04-27T12:30:09.457Z,95634.06
2023-04-27T12:32:37.156Z,95624.28
2023-04-27T12:35:06.218Z,95624.56
2023-04-27T12:37:33.985Z,95618.28
2023-04-27T12:40:01.796Z,95619.03
2023-04-27T12:42:30.737Z,95629.19
2023-04-27T12:44:58.492Z,95634.91
2023-04-27T12:47:45.998Z,95631.38
2023-04-27T12:50:15.708Z,95624.63
2023-04-27T12:52:43.283Z,95626.41
2023-04-27T12:55:21.507Z,95626.72
2023-04-27T12:58:00.153Z,95624.56
2023-04-27T13:00:27.902Z,95620.75
2023-04-27T13:02:56.609Z,95629.31
2023-04-27T13:05:24.732Z,95618.03
2023-04-27T13:07:52.315Z,95616.84
2023-04-27T13:10:20.029Z,95617.97
2023-04-27T13:12:47.706Z,95626.69
2023-04-27T13:15:17.066Z,95622.50
2023-04-27T13:17:44.736Z,95621.25
2023-04-27T13:20:13.327Z,95625.00
2023-04-27T13:22:42.236Z,95607.41
2023-04-27T13:25:10.603Z,95617.44
2023-04-27T13:27:38.223Z,95615.38
2023-04-27T13:30:07.320Z,95606.28
2023-04-27T13:32:36.459Z,95609.72
2023-04-27T13:35:05.374Z,95606.78
2023-04-27T13:37:33.363Z,95604.34
2023-04-27T13:40:01.255Z,95596.19
2023-04-27T13:42:30.023Z,95599.03
2023-04-27T13:44:57.882Z,95600.66
2023-04-27T13:47:25.496Z,95592.78
2023-04-27T13:49:54.942Z,95596.19
2023-04-27T13:52:22.536Z,95591.91
2023-04-27T13:54:50.126Z,95594.28
2023-04-27T13:57:17.891Z,95590.97
2023-04-27T13:59:45.464Z,95593.94
2023-04-27T14:02:14.729Z,95595.66
2023-04-27T14:04:42.386Z,95590.97
2023-04-27T14:07:11.594Z,95595.00
2023-04-27T14:09:39.178Z,95584.44
2023-04-27T14:12:06.947Z,95581.22
2023-04-27T14:14:35.738Z,95582.09
2023-04-27T14:17:03.811Z,95570.72
2023-04-27T14:19:31.517Z,95568.53
2023-04-27T14:22:00.018Z,95569.03
2023-04-27T14:24:29.660Z,95564.59
2023-04-27T14:26:57.523Z,95561.75
2023-04-27T14:29:25.663Z,95559.56
2023-04-27T14:31:53.981Z,95557.50
2023-04-27T14:34:21.744Z,95564.59
2023-04-27T14:36:49.476Z,95564.69
2023-04-27T14:39:17.157Z,95554.91
2023-04-27T14:41:46.291Z,95552.25
2023-04-27T14:44:13.876Z,95550.19
2023-04-27T14:46:41.665Z,95552.00
2023-04-27T14:49:09.298Z,95556.16
2023-04-27T14:51:37.024Z,95552.91
2023-04-27T14:54:04.962Z,95554.03
2023-04-27T14:56:32.690Z,95558.06
2023-04-27T14:59:01.648Z,95562.69
2023-04-27T15:01:29.462Z,95563.28
2023-04-27T15:03:58.049Z,95560.78
2023-04-27T15:06:28.149Z,95561.09
2023-04-27T15:08:56.078Z,95559.50
2023-04-27T15:11:23.747Z,95550.16
2023-04-27T15:13:51.422Z,95557.56
2023-04-27T15:16:20.832Z,95562.47
2023-04-27T15:18:48.468Z,95554.41
2023-04-27T15:21:16.050Z,95555.34
2023-04-27T15:23:43.642Z,95553.06
2023-04-27T15:26:11.229Z,95558.06
2023-04-27T15:28:38.791Z,95553.94
2023-04-27T15:31:06.608Z,95548.56
2023-04-27T15:33:35.765Z,95553.25
2023-04-27T15:36:03.597Z,95549.38
2023-04-27T15:38:31.304Z,95550.66
2023-04-27T15:40:59.111Z,95557.41
2023-04-27T15:43:26.919Z,95554.53
2023-04-27T15:45:54.640Z,95550.47
2023-04-27T15:48:22.474Z,95557.06
2023-04-27T15:50:51.396Z,95550.00
2023-04-27T15:53:18.979Z,95562.97
2023-04-27T15:55:46.791Z,95555.28
2023-04-27T15:58:14.628Z,95551.78
2023-04-27T16:00:42.259Z,95554.53
2023-04-27T16:03:11.343Z,95554.53
2023-04-27T16:05:39.220Z,95558.50
2023-04-27T16:08:08.346Z,95547.19
2023-04-27T16:10:36.014Z,95551.56
2023-04-27T16:13:03.713Z,95535.38
2023-04-27T16:15:31.297Z,95536.97
2023-04-27T16:17:59.333Z,95541.69
2023-04-27T16:20:28.934Z,95537.94
2023-04-27T16:22:56.840Z,95539.53
2023-04-27T16:25:25.776Z,95539.81
2023-04-27T16:27:53.342Z,95534.88
2023-04-27T16:30:21.812Z,95525.81
2023-04-27T16:32:49.470Z,95528.84
2023-04-27T16:35:17.052Z,95526.00
2023-04-27T16:37:44.762Z,95521.22
2023-04-27T16:40:13.497Z,95525.50
2023-04-27T16:42:42.513Z,95526.22
2023-04-27T16:45:11.169Z,95527.00
2023-04-27T16:47:38.975Z,95525.16
2023-04-27T16:50:07.489Z,95529.63
2023-04-27T16:52:35.261Z,95533.13
2023-04-27T16:55:02.852Z,95536.94
2023-04-27T16:57:30.492Z,95533.66
2023-04-27T17:00:00.879Z,95532.63
2023-04-27T17:02:28.893Z,95535.97
2023-04-27T17:04:57.560Z,95527.56
2023-04-27T17:07:28.466Z,95535.75
2023-04-27T17:09:56.103Z,95523.97
2023-04-27T17:12:23.817Z,95528.19
2023-04-27T17:14:51.433Z,95525.91
2023-04-27T17:17:20.483Z,95533.88
2023-04-27T17:19:48.060Z,95532.03
2023-04-27T17:22:16.539Z,95542.31
2023-04-27T17:24:44.134Z,95538.81
2023-04-27T17:27:12.547Z,95536.75
2023-04-27T17:29:40.147Z,95534.59
2023-04-27T17:32:09.178Z,95531.94
2023-04-27T17:34:38.781Z,95535.59
2023-04-27T17:37:08.052Z,95532.03
2023-04-27T17:39:36.042Z,95536.25
2023-04-27T17:42:03.731Z,95529.59
2023-04-27T17:44:31.835Z,95542.13
2023-04-27T17:46:59.414Z,95539.91
2023-04-27T17:49:27.599Z,95539.44
2023-04-27T17:51:56.665Z,95543.59
2023-04-27T17:54:24.279Z,95540.81
2023-04-27T17:56:51.903Z,95538.78
2023-04-27T17:59:19.706Z,95533.75
2023-04-27T18:01:47.315Z,95540.19
2023-04-27T18:04:15.191Z,95536.38
2023-04-27T18:06:42.808Z,95538.13
2023-04-27T18:09:13.100Z,95544.75
2023-04-27T18:11:41.186Z,95547.34
2023-04-27T18:14:08.918Z,95548.94
2023-04-27T18:16:36.531Z,95555.16
2023-04-27T18:19:04.438Z,95551.78
2023-04-27T18:21:32.611Z,95544.41
2023-04-27T18:24:00.290Z,95560.63
2023-04-27T18:26:30.514Z,95554.28
2023-04-27T18:28:58.502Z,95555.72
2023-04-27T18:31:26.350Z,95556.38
2023-04-27T18:33:53.989Z,95566.56
2023-04-27T18:36:21.852Z,95565.69
2023-04-27T18:38:49.515Z,95568.66
2023-04-27T18:41:17.183Z,95568.34
2023-04-27T18:43:46.850Z,95573.94
2023-04-27T18:46:14.630Z,95573.63
2023-04-27T18:48:42.279Z,95578.78
2023-04-27T18:51:09.850Z,95567.38
2023-04-27T18:53:37.448Z,95562.94
2023-04-27T18:56:06.320Z,95561.75
2023-04-27T18:58:34.941Z,95562.22
2023-04-27T19:01:06.105Z,95566.63
2023-04-27T19:03:46.634Z,95565.69
2023-04-27T19:06:14.609Z,95571.50
2023-04-27T19:08:42.337Z,95566.88
2023-04-27T19:11:10.165Z,95567.53
2023-04-27T19:13:40.772Z,95573.28
2023-04-27T19:16:10.100Z,95571.09
2023-04-27T19:18:37.831Z,95577.88
2023-04-27T19:21:07.790Z,95579.53
2023-04-27T19:23:36.625Z,95580.78
2023-04-27T19:26:12.589Z,95585.72
2023-04-27T19:28:41.513Z,95585.72
2023-04-27T19:31:13.372Z,95586.97
2023-04-27T19:33:46.797Z,95582.09
2023-04-27T19:36:14.943Z,95578.44
2023-04-27T19:38:42.536Z,95589.25
2023-04-27T19:41:10.698Z,95584.16
2023-04-27T19:43:38.276Z,95592.31
2023-04-27T19:46:06.209Z,95590.88
2023-04-27T19:48:35.171Z,95588.63
2023-04-27T19:51:02.919Z,95592.06
2023-04-27T19:53:30.512Z,95589.00
2023-04-27T19:56:00.590Z,95591.41
2023-04-27T19:58:28.403Z,95596.09
2023-04-27T20:00:56.025Z,95599.91
2023-04-27T20:03:24.071Z,95600.91
2023-04-27T20:05:53.562Z,95602.22
2023-04-27T20:08:21.400Z,95604.41
2023-04-27T20:10:49.197Z,95600.03
2023-04-27T20:13:16.852Z,95606.03
2023-04-27T20:15:44.510Z,95596.41
2023-04-27T20:18:12.301Z,95596.97
2023-04-27T20:20:42.013Z,95596.16
2023-04-27T20:23:11.286Z,95598.78
2023-04-27T20:25:38.951Z,95591.47
2023-04-27T20:28:06.541Z,95585.44
2023-04-27T20:30:34.370Z,95583.59
2023-04-27T20:33:03.609Z,95581.56
2023-04-27T20:35:31.290Z,95579.75
2023-04-27T20:37:58.902Z,95577.28
2023-04-27T20:40:28.172Z,95577.50
2023-04-27T20:42:56.347Z,95585.69
2023-04-27T20:45:25.363Z,95577.75
2023-04-27T20:47:53.087Z,95572.47
2023-04-27T20:50:20.699Z,95576.88
2023-04-27T20:52:48.284Z,95568.94
2023-04-27T20:55:16.068Z,95571.50
2023-04-27T20:57:45.003Z,95563.59
2023-04-27T21:00:15.364Z,95558.03
2023-04-27T21:02:43.026Z,95551.53
2023-04-27T21:05:11.001Z,95554.38
2023-04-27T21:07:38.584Z,95560.81
2023-04-27T21:10:08.110Z,95559.38
2023-04-27T21:12:35.719Z,95552.66
2023-04-27T21:15:05.324Z,95561.00
2023-04-27T21:17:32.917Z,95562.75
2023-04-27T21:20:00.665Z,95558.81
2023-04-27T21:22:28.260Z,95559.34
2023-04-27T21:24:55.965Z,95564.63
2023-04-27T21:27:24.981Z,95554.28
2023-04-27T21:29:53.194Z,95548.16
2023-04-27T21:32:22.824Z,95544.31
2023-04-27T21:34:50.973Z,95546.97
2023-04-27T21:37:18.682Z,95549.53
2023-04-27T21:39:46.568Z,95549.19
2023-04-27T21:42:15.780Z,95543.44
2023-04-27T21:44:43.348Z,95543.41
2023-04-27T21:47:11.300Z,95544.56
2023-04-27T21:49:40.239Z,95542.13
2023-04-27T21:52:07.942Z,95539.88
2023-04-27T21:54:35.530Z,95535.59
2023-04-27T21:57:04.239Z,95533.78
2023-04-27T21:59:31.823Z,95528.69
2023-04-27T22:01:59.894Z,95526.22
2023-04-27T22:04:28.752Z,95530.97
2023-04-27T22:06:58.051Z,95527.94
2023-04-27T22:09:25.612Z,95534.84
2023-04-27T22:11:53.181Z,95539.09
2023-04-27T22:14:20.874Z,95532.59
2023-04-27T22:16:49.403Z,95542.25
2023-04-27T22:19:17.848Z,95538.38
2023-04-27T22:21:45.787Z,95537.72
2023-04-27T22:24:15.012Z,95543.75
2023-04-27T22:26:42.935Z,95536.94
2023-04-27T22:29:10.526Z,95534.22
2023-04-27T22:31:38.183Z,95534.97
2023-04-27T22:34:06.196Z,95531.06
2023-04-27T22:36:34.184Z,95527.63
2023-04-27T22:39:01.771Z,95530.25
2023-04-27T22:41:30.802Z,95527.97
2023-04-27T22:43:58.375Z,95525.31
2023-04-27T22:46:26.482Z,95523.03
2023-04-27T22:48:55.054Z,95522.69
2023-04-27T22:51:23.724Z,95516.59
2023-04-27T22:53:51.309Z,95518.22
2023-04-27T22:56:19.127Z,95513.78
2023-04-27T22:58:48.087Z,95508.50
2023-04-27T23:01:15.733Z,95503.22
2023-04-27T23:03:43.632Z,95507.69
2023-04-27T23:06:14.221Z,95500.78
2023-04-27T23:08:44.720Z,95504.88
2023-04-27T23:11:15.190Z,95510.88
2023-04-27T23:13:42.798Z,95509.22
2023-04-27T23:16:11.838Z,95503.50
2023-04-27T23:18:40.025Z,95510.34
2023-04-27T23:21:07.641Z,95509.06
2023-04-27T23:23:35.971Z,95513.59
2023-04-27T23:26:03.574Z,95503.00
2023-04-27T23:28:31.521Z,95501.81
2023-04-27T23:30:59.133Z,95512.16
2023-04-27T23:33:28.548Z,95505.25
2023-04-27T23:35:56.320Z,95492.81
2023-04-27T23:38:24.193Z,95497.81
2023-04-27T23:40:52.024Z,95500.56
2023-04-27T23:43:19.834Z,95499.72
2023-04-27T23:45:49.802Z,95497.28
2023-04-27T23:48:17.589Z,95493.34
2023-04-27T23:50:46.614Z,95499.63
2023-04-27T23:53:14.332Z,95493.72
2023-04-27T23:55:41.947Z,95490.28
2023-04-27T23:58:09.646Z,95496.00
